Time;durP1;ratioP1;P1;durP2;ratioP2;P2;SDS_P1;SDS_P2;PMS_P1;PMS_P2;Temp;Humidity;BMP_temperature;BMP_pressure;BME280_temperature;BME280_humidity;BME280_pressure;Samples;Min_cycle;Max_cycle;Signal;HPM_P1;HPM_P2
2021/04/14 00:02:10;;;;;;;2.93;2.50;;;6.00;75.20;;;;;;6223131;28;20484;-61
2021/04/14 00:05:13;;;;;;;3.80;3.50;;;6.00;71.60;;;;;;6222817;28;20945;-61
2021/04/14 00:08:17;;;;;;;4.00;3.60;;;6.00;71.60;;;;;;6235824;28;20479;-62
2021/04/14 00:11:20;;;;;;;3.70;3.37;;;6.00;71.10;;;;;;6248291;28;20443;-61
2021/04/14 00:14:23;;;;;;;3.00;2.80;;;6.00;71.20;;;;;;6249395;28;20474;-62
2021/04/14 00:17:25;;;;;;;3.37;3.17;;;6.00;71.60;;;;;;6249157;28;20439;-61
2021/04/14 00:20:27;;;;;;;3.07;2.77;;;6.00;71.60;;;;;;6249065;28;20466;-62
2021/04/14 00:23:30;;;;;;;2.97;2.60;;;6.10;71.30;;;;;;6248649;28;20935;-62
2021/04/14 00:26:32;;;;;;;3.07;2.87;;;6.00;69.90;;;;;;6248617;28;20489;-62
2021/04/14 00:29:35;;;;;;;3.63;3.33;;;5.90;70.30;;;;;;6248607;28;20466;-62
2021/04/14 00:32:37;;;;;;;2.50;2.40;;;5.90;70.70;;;;;;6249316;28;20478;-62
2021/04/14 00:35:40;;;;;;;2.70;2.50;;;5.90;70.80;;;;;;6249741;28;20467;-62
2021/04/14 00:38:43;;;;;;;2.93;2.73;;;5.80;70.40;;;;;;6249529;28;20471;-62
2021/04/14 00:41:46;;;;;;;2.80;2.50;;;5.90;70.70;;;;;;6240652;28;20470;-62
2021/04/14 00:44:48;;;;;;;2.80;2.60;;;5.90;72.30;;;;;;6249402;28;20820;-62
2021/04/14 00:47:50;;;;;;;2.90;2.70;;;6.00;70.70;;;;;;6249561;28;20468;-62
2021/04/14 00:50:53;;;;;;;2.73;2.50;;;6.00;70.60;;;;;;6249422;28;20474;-62
2021/04/14 00:53:56;;;;;;;2.13;2.03;;;6.00;70.40;;;;;;6249655;28;20486;-63
2021/04/14 00:56:58;;;;;;;2.70;2.50;;;6.00;70.20;;;;;;6249558;28;20466;-62
2021/04/14 01:00:00;;;;;;;3.13;2.93;;;6.00;70.60;;;;;;6249427;28;20466;-62
2021/04/14 01:03:04;;;;;;;2.60;2.40;;;6.10;70.60;;;;;;6249338;28;20488;-62
2021/04/14 01:06:10;;;;;;;2.87;2.67;;;6.10;70.60;;;;;;6249237;28;20486;-63
2021/04/14 01:09:13;;;;;;;2.80;2.60;;;6.10;70.10;;;;;;6249141;28;20479;-62
2021/04/14 01:12:15;;;;;;;2.90;2.70;;;6.10;69.70;;;;;;6249068;28;20516;-62
2021/04/14 01:15:20;;;;;;;2.53;2.33;;;6.10;69.40;;;;;;6249201;28;20485;-62
2021/04/14 01:18:25;;;;;;;2.80;2.60;;;6.10;69.80;;;;;;6249371;28;20490;-62
2021/04/14 01:21:36;;;;;;;2.90;2.70;;;6.10;69.10;;;;;;6250097;28;20481;-62
2021/04/14 01:24:38;;;;;;;2.37;2.17;;;6.10;69.50;;;;;;6253569;28;20986;-62
2021/04/14 01:27:40;;;;;;;2.90;2.70;;;6.10;69.20;;;;;;6253498;28;20478;-62
2021/04/14 01:30:44;;;;;;;2.90;2.70;;;6.10;69.00;;;;;;6253333;28;20986;-62
2021/04/14 01:33:46;;;;;;;3.17;2.90;;;6.10;69.00;;;;;;6253291;28;20485;-62
2021/04/14 01:36:50;;;;;;;2.60;2.40;;;6.10;69.50;;;;;;6253335;28;20521;-62
2021/04/14 01:39:52;;;;;;;2.50;2.40;;;6.10;69.20;;;;;;6253233;28;20489;-63
2021/04/14 01:42:55;;;;;;;3.80;3.03;;;6.20;69.40;;;;;;6253089;28;20482;-63
2021/04/14 01:45:58;;;;;;;2.60;2.23;;;6.10;69.60;;;;;;6248610;28;20806;-64
2021/04/14 01:49:00;;;;;;;2.10;1.90;;;6.10;69.10;;;;;;6252938;28;20467;-62
2021/04/14 01:52:03;;;;;;;2.30;2.10;;;6.10;69.20;;;;;;6253018;28;20467;-62
2021/04/14 01:55:08;;;;;;;2.60;2.40;;;6.10;69.20;;;;;;6253030;28;20475;-62
2021/04/14 01:58:13;;;;;;;2.70;2.60;;;6.20;69.40;;;;;;6252811;28;20962;-63
2021/04/14 02:01:15;;;;;;;2.30;2.10;;;6.20;69.30;;;;;;6252765;28;20483;-63
2021/04/14 02:04:18;;;;;;;2.10;2.00;;;6.20;69.30;;;;;;6252664;28;20975;-62
2021/04/14 02:07:20;;;;;;;2.23;2.13;;;6.10;69.30;;;;;;6252815;28;20475;-63
2021/04/14 02:10:26;;;;;;;2.60;2.40;;;6.10;69.10;;;;;;6252654;28;20783;-63
2021/04/14 02:13:30;;;;;;;2.80;2.50;;;5.90;69.80;;;;;;6252541;28;20471;-62
2021/04/14 02:16:34;;;;;;;2.37;2.27;;;5.90;69.70;;;;;;6252185;28;20805;-63
2021/04/14 02:19:37;;;;;;;2.30;2.20;;;5.90;70.00;;;;;;6252321;28;20470;-63
2021/04/14 02:22:40;;;;;;;2.37;2.17;;;5.90;70.40;;;;;;6252508;28;20911;-62
2021/04/14 02:25:43;;;;;;;2.70;2.10;;;5.90;70.70;;;;;;6252007;28;20991;-63
2021/04/14 02:28:46;;;;;;;2.20;2.00;;;5.90;70.80;;;;;;6251883;28;20475;-61
2021/04/14 02:31:49;;;;;;;2.27;2.10;;;6.00;70.50;;;;;;6251950;28;20471;-63
2021/04/14 02:34:51;;;;;;;2.40;2.20;;;5.90;70.00;;;;;;6250849;28;20789;-64
2021/04/14 02:37:55;;;;;;;2.03;1.93;;;5.90;70.00;;;;;;6251780;28;20479;-61
2021/04/14 02:40:57;;;;;;;2.17;2.07;;;5.90;70.20;;;;;;6251543;28;20467;-63
2021/04/14 02:43:59;;;;;;;1.97;1.80;;;5.90;70.10;;;;;;6251713;28;20485;-64
2021/04/14 02:47:01;;;;;;;1.70;1.60;;;6.00;69.70;;;;;;6251674;28;20482;-60
2021/04/14 02:50:04;;;;;;;2.17;2.03;;;6.00;70.20;;;;;;6247856;28;20485;-63
2021/04/14 02:53:09;;;;;;;2.00;1.90;;;6.00;70.50;;;;;;6251390;28;20479;-63
2021/04/14 02:56:11;;;;;;;1.97;1.87;;;6.00;70.70;;;;;;6251164;28;20482;-60
2021/04/14 02:59:13;;;;;;;2.20;2.00;;;6.00;70.80;;;;;;6251301;28;20458;-63
2021/04/14 03:02:15;;;;;;;2.30;2.10;;;6.00;71.20;;;;;;6251548;28;20508;-60
2021/04/14 03:05:21;;;;;;;2.70;2.43;;;5.90;71.50;;;;;;6251413;28;20486;-60
2021/04/14 03:08:24;;;;;;;2.10;2.00;;;5.90;71.50;;;;;;6251068;28;20478;-60
2021/04/14 03:11:26;;;;;;;2.33;2.13;;;5.80;71.30;;;;;;6251333;28;20451;-60
2021/04/14 03:14:28;;;;;;;2.07;1.97;;;5.80;71.40;;;;;;6250955;28;20463;-60
2021/04/14 03:17:31;;;;;;;2.47;2.13;;;5.80;71.40;;;;;;6250868;28;20439;-60
2021/04/14 03:20:33;;;;;;;2.50;2.30;;;5.70;71.00;;;;;;6250864;28;20482;-60
2021/04/14 03:23:36;;;;;;;2.10;2.00;;;5.70;70.90;;;;;;6250665;28;20779;-63
2021/04/14 03:26:38;;;;;;;2.93;2.00;;;5.70;71.60;;;;;;6250702;28;20471;-63
2021/04/14 03:29:41;;;;;;;2.70;2.40;;;5.70;70.60;;;;;;6250521;28;20852;-62
2021/04/14 03:32:43;;;;;;;1.90;1.80;;;5.70;71.20;;;;;;6250469;28;20486;-60
2021/04/14 03:35:45;;;;;;;1.97;1.87;;;5.70;71.30;;;;;;6250295;28;20467;-59
2021/04/14 03:38:48;;;;;;;1.97;1.87;;;5.80;71.00;;;;;;6250446;28;20967;-60
2021/04/14 03:41:50;;;;;;;1.70;1.60;;;5.90;69.20;;;;;;6250220;28;20482;-63
2021/04/14 03:44:53;;;;;;;1.90;1.80;;;5.90;68.60;;;;;;6249993;28;20505;-60
2021/04/14 03:47:55;;;;;;;1.83;1.50;;;5.90;69.30;;;;;;6250340;28;20463;-60
2021/04/14 03:50:58;;;;;;;2.67;1.80;;;5.90;69.30;;;;;;6250078;28;20803;-61
2021/04/14 03:54:01;;;;;;;2.27;2.17;;;5.90;69.00;;;;;;6250513;28;20485;-62
2021/04/14 03:57:20;;;;;;;1.87;1.77;;;5.90;69.40;;;;;;6250085;28;20979;-62
2021/04/14 04:00:25;;;;;;;2.03;1.93;;;5.90;69.30;;;;;;6249924;28;20475;-63
2021/04/14 04:03:28;;;;;;;2.07;1.93;;;5.90;69.30;;;;;;6250162;28;20485;-60
2021/04/14 04:06:30;;;;;;;2.57;2.37;;;5.80;69.50;;;;;;6250128;28;20586;-59
2021/04/14 04:09:33;;;;;;;2.50;2.20;;;5.70;69.60;;;;;;6249939;28;20815;-63
2021/04/14 04:12:36;;;;;;;1.90;1.80;;;5.70;70.20;;;;;;6249633;28;20994;-60
2021/04/14 04:15:38;;;;;;;1.70;1.60;;;5.70;70.50;;;;;;6250277;28;20478;-62
2021/04/14 04:18:40;;;;;;;2.30;2.10;;;5.70;70.20;;;;;;6250188;28;20981;-63
2021/04/14 04:21:42;;;;;;;3.33;2.23;;;5.70;70.40;;;;;;6250228;28;20981;-60
2021/04/14 04:24:46;;;;;;;2.80;2.50;;;5.60;70.60;;;;;;6249478;28;20490;-63
2021/04/14 04:27:48;;;;;;;2.50;2.30;;;5.50;71.10;;;;;;6249745;28;20466;-60
2021/04/14 04:30:50;;;;;;;2.90;2.70;;;5.50;72.30;;;;;;6249451;28;20942;-61
2021/04/14 04:33:52;;;;;;;2.40;2.20;;;5.50;72.60;;;;;;6249820;28;20489;-63
2021/04/14 04:36:55;;;;;;;2.40;2.20;;;5.40;73.70;;;;;;6249386;28;21021;-60
2021/04/14 04:39:58;;;;;;;2.33;2.00;;;5.40;73.20;;;;;;6249468;28;20471;-63
2021/04/14 04:43:00;;;;;;;2.00;1.90;;;5.60;73.70;;;;;;6249489;28;20482;-63
2021/04/14 04:46:02;;;;;;;3.70;2.00;;;5.60;72.80;;;;;;6249989;28;20474;-60
2021/04/14 04:49:04;;;;;;;2.47;1.80;;;5.60;73.10;;;;;;6249540;28;20479;-64
2021/04/14 04:52:07;;;;;;;3.10;1.60;;;5.70;74.10;;;;;;6249651;28;20482;-64
2021/04/14 04:55:12;;;;;;;2.43;2.20;;;5.70;73.40;;;;;;6249441;28;20475;-60
2021/04/14 04:58:15;;;;;;;2.37;2.17;;;5.80;73.40;;;;;;6244472;28;20475;-63
2021/04/14 05:01:18;;;;;;;3.03;1.63;;;5.80;73.40;;;;;;6254129;28;20490;-64
2021/04/14 05:04:21;;;;;;;1.83;1.73;;;5.90;73.10;;;;;;6253850;28;21009;-60
2021/04/14 05:07:23;;;;;;;1.97;1.87;;;6.00;72.90;;;;;;6253546;28;20483;-63
2021/04/14 05:10:27;;;;;;;2.07;1.97;;;6.00;72.80;;;;;;6253763;28;20546;-61
2021/04/14 05:13:29;;;;;;;2.30;2.10;;;6.20;72.80;;;;;;6253421;28;20814;-64
2021/04/14 05:16:31;;;;;;;1.60;1.50;;;6.30;71.90;;;;;;6252254;28;20485;-64
2021/04/14 05:19:33;;;;;;;2.87;2.07;;;6.40;71.40;;;;;;6252233;28;20860;-61
2021/04/14 05:22:37;;;;;;;2.63;2.43;;;6.50;71.10;;;;;;6252341;28;20977;-61
2021/04/14 05:25:45;;;;;;;2.07;1.97;;;6.60;70.10;;;;;;6252433;28;20475;-61
2021/04/14 05:28:47;;;;;;;5.70;2.23;;;6.60;69.90;;;;;;6252356;28;20536;-62
2021/04/14 05:31:49;;;;;;;2.23;2.13;;;6.60;69.90;;;;;;6252927;28;20485;-64
2021/04/14 05:34:51;;;;;;;2.30;2.10;;;6.70;69.90;;;;;;6252670;28;20487;-60
2021/04/14 05:37:56;;;;;;;2.70;2.50;;;6.80;69.30;;;;;;6253545;28;20471;-64
2021/04/14 05:40:59;;;;;;;2.23;2.00;;;6.70;69.00;;;;;;6250870;28;20479;-64
2021/04/14 05:44:01;;;;;;;6.40;2.50;;;6.70;68.90;;;;;;6250691;28;20793;-64
2021/04/14 05:47:04;;;;;;;2.10;1.77;;;6.80;69.10;;;;;;6250719;28;20483;-61
2021/04/14 05:50:08;;;;;;;3.67;1.90;;;6.80;68.80;;;;;;6250649;28;20984;-65
2021/04/14 05:53:10;;;;;;;4.60;2.07;;;6.90;68.30;;;;;;6250497;28;20471;-65
2021/04/14 05:56:14;;;;;;;3.43;2.00;;;7.00;68.20;;;;;;6252299;28;20467;-64
2021/04/14 05:59:16;;;;;;;3.53;2.00;;;7.10;68.60;;;;;;6252818;28;20439;-64
2021/04/14 06:02:18;;;;;;;2.37;2.27;;;7.40;67.30;;;;;;6248098;28;20474;-64
2021/04/14 06:05:23;;;;;;;1.73;1.63;;;7.70;65.60;;;;;;6252456;28;20463;-61
2021/04/14 06:08:26;;;;;;;2.17;2.03;;;7.80;64.50;;;;;;6251526;28;20598;-61
2021/04/14 06:11:29;;;;;;;1.93;1.83;;;7.90;63.90;;;;;;6253089;28;20451;-64
2021/04/14 06:14:31;;;;;;;5.07;2.40;;;7.90;63.80;;;;;;6251924;28;20470;-61
2021/04/14 06:17:34;;;;;;;3.73;1.80;;;8.00;63.40;;;;;;6252386;28;20442;-64
2021/04/14 06:20:37;;;;;;;3.73;1.60;;;8.10;63.00;;;;;;6252528;28;20463;-64
2021/04/14 06:23:39;;;;;;;1.63;1.53;;;8.20;62.90;;;;;;6252414;28;20466;-61
2021/04/14 06:26:45;;;;;;;3.93;2.13;;;8.50;62.60;;;;;;6252213;28;20467;-61
2021/04/14 06:29:48;;;;;;;5.70;2.07;;;8.90;61.10;;;;;;6252507;28;20482;-64
2021/04/14 06:32:50;;;;;;;2.10;2.00;;;9.20;59.20;;;;;;6251995;28;20475;-64
2021/04/14 06:35:52;;;;;;;2.83;2.03;;;9.50;58.90;;;;;;6252424;28;20459;-64
2021/04/14 06:38:55;;;;;;;2.17;1.97;;;10.00;57.20;;;;;;6252287;28;20478;-61
2021/04/14 06:42:12;;;;;;;1.60;1.50;;;10.30;55.40;;;;;;6252062;28;20467;-61
2021/04/14 06:45:20;;;;;;;1.87;1.77;;;10.60;54.90;;;;;;6251633;28;20474;-61
2021/04/14 06:48:31;;;;;;;1.80;1.70;;;11.10;54.90;;;;;;6251731;28;20467;-61
2021/04/14 06:51:40;;;;;;;1.60;1.50;;;11.50;52.80;;;;;;6251968;28;20482;-65
2021/04/14 06:54:48;;;;;;;1.50;1.40;;;11.80;51.00;;;;;;6251565;28;20475;-64
2021/04/14 06:57:54;;;;;;;1.73;1.60;;;12.10;49.40;;;;;;6251858;28;20471;-65
2021/04/14 07:01:01;;;;;;;2.30;1.40;;;12.20;48.40;;;;;;6251548;28;20481;-64
2021/04/14 07:04:08;;;;;;;2.60;1.50;;;12.60;47.90;;;;;;6251149;28;20478;-64
2021/04/14 07:07:21;;;;;;;3.07;1.70;;;13.20;47.30;;;;;;6242060;28;20479;-65
2021/04/14 07:10:25;;;;;;;1.77;1.67;;;13.60;45.60;;;;;;6250925;28;20479;-65
2021/04/14 07:13:32;;;;;;;1.87;1.67;;;14.30;45.10;;;;;;6251225;28;20479;-65
2021/04/14 07:16:53;;;;;;;1.40;1.30;;;14.40;43.00;;;;;;6250901;28;20482;-65
2021/04/14 07:20:09;;;;;;;2.27;2.07;;;14.10;42.60;;;;;;6250051;28;20467;-65
2021/04/14 07:23:32;;;;;;;3.57;2.00;;;14.40;41.40;;;;;;6249230;28;20565;-64
2021/04/14 07:26:41;;;;;;;3.47;1.80;;;14.40;41.10;;;;;;6248998;28;20810;-64
2021/04/14 07:29:49;;;;;;;3.60;1.63;;;14.40;41.40;;;;;;6248507;28;20471;-64
2021/04/14 07:33:05;;;;;;;3.43;1.60;;;14.50;40.50;;;;;;6255188;28;21088;-64
2021/04/14 07:36:15;;;;;;;2.93;1.50;;;14.50;40.20;;;;;;6254105;28;20830;-65
2021/04/14 07:39:24;;;;;;;1.90;1.20;;;14.50;40.40;;;;;;6249991;28;20478;-63
2021/04/14 07:42:34;;;;;;;1.60;1.50;;;15.30;39.50;;;;;;6256809;28;20463;-64
2021/04/14 07:45:38;;;;;;;2.30;1.60;;;16.40;38.80;;;;;;6255434;28;20960;-64
2021/04/14 07:48:42;;;;;;;2.60;1.67;;;16.70;37.30;;;;;;6249838;28;20462;-63
2021/04/14 07:51:45;;;;;;;3.67;1.53;;;17.20;35.80;;;;;;6249442;28;20463;-64
2021/04/14 07:54:49;;;;;;;1.77;1.67;;;18.10;34.30;;;;;;6249578;28;20475;-64
2021/04/14 07:57:52;;;;;;;2.90;1.60;;;18.90;33.10;;;;;;6249222;28;20478;-64
2021/04/14 08:00:55;;;;;;;2.53;2.33;;;20.00;32.10;;;;;;6249451;28;20803;-64
2021/04/14 08:04:11;;;;;;;7.00;6.40;;;20.60;30.10;;;;;;6249506;28;20676;-64
2021/04/14 08:07:16;;;;;;;7.43;6.73;;;20.70;29.50;;;;;;6248572;28;20664;-64
2021/04/14 08:10:21;;;;;;;6.97;6.37;;;21.30;29.10;;;;;;6239993;28;20714;-64
2021/04/14 08:13:26;;;;;;;3.17;2.87;;;22.00;28.30;;;;;;6249196;28;20228;-64
2021/04/14 08:16:34;;;;;;;3.43;3.13;;;22.70;27.40;;;;;;6246355;28;20566;-64
2021/04/14 08:19:38;;;;;;;2.80;1.37;;;22.80;27.00;;;;;;6247963;28;20216;-64
2021/04/14 08:22:40;;;;;;;0.90;0.90;;;22.80;26.70;;;;;;6249444;28;20220;-65
2021/04/14 08:25:46;;;;;;;1.40;1.30;;;23.40;26.50;;;;;;6249206;28;20578;-66
2021/04/14 08:28:50;;;;;;;1.60;1.37;;;23.90;27.10;;;;;;6249742;28;20233;-65
2021/04/14 08:31:54;;;;;;;2.37;1.87;;;24.90;26.00;;;;;;6251347;28;20243;-64
2021/04/14 08:34:58;;;;;;;3.93;1.70;;;24.40;23.90;;;;;;6254174;28;20240;-65
2021/04/14 08:38:02;;;;;;;1.47;1.37;;;22.80;25.40;;;;;;6254456;28;20242;-64
2021/04/14 08:41:06;;;;;;;2.13;1.93;;;22.10;26.00;;;;;;6254088;28;20255;-64
2021/04/14 08:44:11;;;;;;;1.53;1.30;;;20.90;26.90;;;;;;6254393;28;20240;-64
2021/04/14 08:47:18;;;;;;;1.50;1.30;;;19.80;27.30;;;;;;6254311;28;20228;-64
2021/04/14 08:50:27;;;;;;;1.50;1.40;;;18.30;28.60;;;;;;6241293;28;20218;-64
2021/04/14 08:53:33;;;;;;;2.97;2.10;;;17.90;29.40;;;;;;6229780;28;20472;-63
2021/04/14 08:56:36;;;;;;;2.80;1.70;;;17.90;29.80;;;;;;6229259;28;21050;-64
2021/04/14 08:59:40;;;;;;;2.13;1.43;;;17.70;30.10;;;;;;6228883;28;20962;-63
2021/04/14 09:02:44;;;;;;;4.20;1.70;;;17.80;29.90;;;;;;6229210;28;20467;-63
2021/04/14 09:05:47;;;;;;;1.70;1.20;;;17.30;30.50;;;;;;6229082;28;20472;-65
2021/04/14 09:08:52;;;;;;;1.57;1.47;;;16.60;31.50;;;;;;6228679;28;20805;-63
2021/04/14 09:12:03;;;;;;;3.13;1.43;;;16.50;32.50;;;;;;6240370;28;20475;-63
2021/04/14 09:15:08;;;;;;;2.17;1.70;;;16.10;32.40;;;;;;6250937;28;20487;-63
2021/04/14 09:18:11;;;;;;;2.07;1.83;;;15.40;33.40;;;;;;6246257;28;20469;-63
2021/04/14 09:21:16;;;;;;;1.10;1.00;;;15.20;34.70;;;;;;6253691;28;20463;-64
2021/04/14 09:24:29;;;;;;;1.63;1.53;;;16.30;34.00;;;;;;6253268;28;20811;-64
2021/04/14 09:27:45;;;;;;;2.50;1.90;;;17.50;32.40;;;;;;6250527;28;20490;-63
2021/04/14 09:30:51;;;;;;;1.30;1.20;;;18.60;30.60;;;;;;6251681;28;20481;-64
2021/04/14 09:33:55;;;;;;;3.57;1.70;;;19.70;29.70;;;;;;6251271;28;20926;-63
2021/04/14 09:37:06;;;;;;;1.47;1.37;;;20.00;28.80;;;;;;6253038;28;20245;-63
2021/04/14 09:40:11;;;;;;;1.23;1.13;;;19.50;28.20;;;;;;6253307;28;20244;-63
2021/04/14 09:43:34;;;;;;;1.43;1.33;;;19.30;28.80;;;;;;6253415;28;20239;-64
2021/04/14 09:46:52;;;;;;;2.03;1.83;;;19.00;29.10;;;;;;6252121;28;20657;-64
2021/04/14 09:49:58;;;;;;;2.20;2.00;;;18.80;29.30;;;;;;6252016;28;20577;-63
2021/04/14 09:53:03;;;;;;;1.50;1.40;;;18.40;29.70;;;;;;6251867;28;20471;-65
2021/04/14 09:56:23;;;;;;;2.50;1.47;;;17.90;29.90;;;;;;6251779;28;20466;-63
2021/04/14 09:59:30;;;;;;;2.03;1.80;;;17.40;30.30;;;;;;6251888;28;20461;-63
2021/04/14 10:02:37;;;;;;;1.63;1.43;;;16.30;31.40;;;;;;6253276;28;20442;-64
2021/04/14 10:05:41;;;;;;;2.17;1.43;;;15.70;33.10;;;;;;6252916;28;20528;-63
2021/04/14 10:08:44;;;;;;;3.73;2.17;;;15.70;34.30;;;;;;6252698;28;20467;-62
2021/04/14 10:11:48;;;;;;;2.13;1.80;;;15.70;33.50;;;;;;6251957;28;21032;-61
2021/04/14 10:14:53;;;;;;;1.93;1.40;;;15.40;33.20;;;;;;6252633;28;20471;-61
2021/04/14 10:18:02;;;;;;;1.40;1.30;;;15.00;34.00;;;;;;6247821;28;20468;-61
2021/04/14 10:21:18;;;;;;;1.50;1.40;;;14.80;33.90;;;;;;6252299;28;20985;-62
2021/04/14 10:24:20;;;;;;;2.37;1.43;;;14.50;34.30;;;;;;6263752;28;20800;-61
2021/04/14 10:27:23;;;;;;;2.07;1.20;;;14.50;34.90;;;;;;6276941;28;20485;-61
2021/04/14 10:30:27;;;;;;;2.13;1.40;;;14.50;36.20;;;;;;6266489;28;20485;-62
2021/04/14 10:33:29;;;;;;;1.90;1.67;;;14.70;35.50;;;;;;6251435;28;20609;-62
2021/04/14 10:36:34;;;;;;;2.20;1.77;;;14.70;36.30;;;;;;6252094;28;20467;-61
2021/04/14 10:39:36;;;;;;;1.77;1.67;;;14.80;35.30;;;;;;6251345;28;20482;-62
2021/04/14 10:42:39;;;;;;;3.00;1.30;;;14.90;34.90;;;;;;6252190;28;20536;-62
2021/04/14 10:45:55;;;;;;;2.13;1.93;;;15.00;36.40;;;;;;6251340;28;21013;-60
2021/04/14 10:49:00;;;;;;;2.37;1.80;;;15.10;36.50;;;;;;6245135;28;20960;-61
2021/04/14 10:52:12;;;;;;;1.53;1.43;;;14.80;34.90;;;;;;6235302;28;20794;-60
2021/04/14 10:55:18;;;;;;;4.13;2.10;;;14.50;35.30;;;;;;6226644;28;20480;-60
2021/04/14 10:58:24;;;;;;;1.50;1.40;;;14.30;35.20;;;;;;6241882;28;20471;-60
2021/04/14 11:01:36;;;;;;;2.43;1.70;;;14.10;36.10;;;;;;6251242;28;20975;-60
2021/04/14 11:04:40;;;;;;;2.30;1.70;;;14.20;36.10;;;;;;6251054;28;20502;-60
2021/04/14 11:07:45;;;;;;;2.93;1.73;;;14.20;34.60;;;;;;6228891;28;20494;-60
2021/04/14 11:10:49;;;;;;;1.67;1.57;;;14.10;35.20;;;;;;6226199;28;21018;-60
2021/04/14 11:13:54;;;;;;;1.60;1.40;;;13.80;33.60;;;;;;6226646;28;20491;-60
2021/04/14 11:16:56;;;;;;;1.63;1.53;;;13.90;34.00;;;;;;6235354;28;20969;-60
2021/04/14 11:20:00;;;;;;;1.63;1.50;;;13.70;33.80;;;;;;6250840;28;20560;-60
2021/04/14 11:23:03;;;;;;;1.57;1.20;;;13.50;34.20;;;;;;6235863;28;20812;-59
2021/04/14 11:26:08;;;;;;;1.90;1.70;;;13.40;34.40;;;;;;6253818;28;20801;-60
2021/04/14 11:29:20;;;;;;;1.60;1.50;;;13.40;34.70;;;;;;6248668;28;20835;-60
2021/04/14 11:32:25;;;;;;;1.63;1.20;;;13.60;34.70;;;;;;6249888;28;20898;-60
2021/04/14 11:35:40;;;;;;;1.70;1.20;;;13.40;34.20;;;;;;6249470;28;20471;-60
2021/04/14 11:38:44;;;;;;;2.60;1.60;;;13.60;35.30;;;;;;6249678;28;20473;-60
2021/04/14 11:41:50;;;;;;;2.80;1.90;;;13.80;34.40;;;;;;6249929;28;20942;-60
2021/04/14 11:44:54;;;;;;;1.37;1.27;;;14.30;34.30;;;;;;6250064;28;20786;-61
2021/04/14 11:48:07;;;;;;;1.57;1.30;;;14.80;33.20;;;;;;6249748;28;20455;-60
2021/04/14 11:51:30;;;;;;;1.70;1.60;;;15.20;32.90;;;;;;6249988;28;20966;-61
2021/04/14 11:54:36;;;;;;;1.10;1.10;;;15.30;31.20;;;;;;6249595;28;20489;-62
2021/04/14 11:57:44;;;;;;;2.13;1.10;;;15.60;32.20;;;;;;6249257;28;20459;-62
2021/04/14 12:00:46;;;;;;;1.50;1.40;;;15.70;31.70;;;;;;6249974;28;20471;-61
2021/04/14 12:03:49;;;;;;;1.83;1.50;;;15.50;31.20;;;;;;6248403;28;20475;-62
2021/04/14 12:06:52;;;;;;;2.10;1.43;;;15.30;29.80;;;;;;6247161;28;20481;-62
2021/04/14 12:09:55;;;;;;;2.00;1.43;;;15.10;30.20;;;;;;6247989;28;20481;-62
2021/04/14 12:12:57;;;;;;;3.77;1.70;;;15.10;30.90;;;;;;6247492;28;20817;-61
2021/04/14 12:15:59;;;;;;;2.23;1.27;;;15.10;31.00;;;;;;6247415;28;20471;-61
2021/04/14 12:19:02;;;;;;;2.50;1.10;;;15.10;30.90;;;;;;6248215;28;20481;-62
2021/04/14 12:22:05;;;;;;;1.40;1.27;;;15.10;30.80;;;;;;6248447;28;20474;-63
2021/04/14 12:25:10;;;;;;;1.83;1.30;;;14.80;31.30;;;;;;6260407;28;20482;-62
2021/04/14 12:28:13;;;;;;;1.23;1.00;;;14.20;32.40;;;;;;6271700;28;20478;-62
2021/04/14 12:31:15;;;;;;;4.20;1.60;;;13.40;32.40;;;;;;6263873;28;20816;-62
2021/04/14 12:34:24;;;;;;;1.57;1.47;;;12.70;35.30;;;;;;6246340;28;20470;-62
2021/04/14 12:37:26;;;;;;;1.70;1.60;;;12.20;37.00;;;;;;6247332;28;20510;-61
2021/04/14 12:40:29;;;;;;;2.57;2.00;;;12.00;37.60;;;;;;6247781;28;20467;-61
2021/04/14 12:43:31;;;;;;;1.63;1.40;;;11.70;37.80;;;;;;6248639;28;20459;-65
2021/04/14 12:46:38;;;;;;;2.70;2.00;;;11.90;37.60;;;;;;6249369;28;20478;-61
2021/04/14 12:49:52;;;;;;;1.90;1.37;;;12.00;37.40;;;;;;6247892;28;20486;-62
2021/04/14 12:52:58;;;;;;;1.50;1.37;;;12.30;38.80;;;;;;6248396;28;20483;-61
2021/04/14 12:56:03;;;;;;;2.50;1.83;;;12.70;36.80;;;;;;6248273;28;20495;-62
2021/04/14 12:59:09;;;;;;;1.93;1.57;;;13.20;35.60;;;;;;6247812;28;20481;-62
2021/04/14 13:02:17;;;;;;;2.40;1.47;;;13.50;35.40;;;;;;6247933;28;20474;-62
2021/04/14 13:05:23;;;;;;;3.27;1.50;;;13.90;35.30;;;;;;6245478;28;20467;-62
2021/04/14 13:08:34;;;;;;;1.20;1.03;;;14.40;34.30;;;;;;6249309;28;20617;-61
2021/04/14 13:11:41;;;;;;;2.30;1.27;;;14.90;33.00;;;;;;6249310;28;20439;-60
2021/04/14 13:14:43;;;;;;;1.50;1.40;;;15.00;32.90;;;;;;6249330;28;20467;-62
2021/04/14 13:17:49;;;;;;;2.13;2.03;;;15.10;32.40;;;;;;6249777;28;20942;-61
2021/04/14 13:20:58;;;;;;;2.23;1.67;;;14.80;32.30;;;;;;6253540;28;20550;-61
2021/04/14 13:24:16;;;;;;;1.50;1.40;;;14.90;33.70;;;;;;6261879;28;20906;-61
2021/04/14 13:27:28;;;;;;;3.10;1.73;;;14.90;33.40;;;;;;6253592;28;20485;-62
2021/04/14 13:30:34;;;;;;;1.93;1.80;;;14.60;32.60;;;;;;6253294;28;20459;-61
2021/04/14 13:33:44;;;;;;;1.77;1.67;;;14.30;33.10;;;;;;6239492;28;20483;-61
2021/04/14 13:36:51;;;;;;;2.17;1.90;;;14.00;33.00;;;;;;6243484;28;20464;-61
2021/04/14 13:39:59;;;;;;;1.70;1.60;;;13.90;34.60;;;;;;6252765;28;20463;-61
2021/04/14 13:43:03;;;;;;;1.63;1.53;;;13.90;34.40;;;;;;6252499;28;20470;-62
2021/04/14 13:46:11;;;;;;;1.80;1.70;;;14.10;33.90;;;;;;6252726;28;20466;-62
2021/04/14 13:49:21;;;;;;;2.20;1.67;;;14.20;32.60;;;;;;6252099;28;20479;-59
2021/04/14 13:52:28;;;;;;;3.47;1.70;;;14.00;32.20;;;;;;6244068;28;20463;-60
2021/04/14 13:55:31;;;;;;;4.47;1.70;;;13.90;32.20;;;;;;6251430;28;20471;-60
2021/04/14 13:58:46;;;;;;;7.50;1.70;;;13.80;32.20;;;;;;6251382;28;20471;-61
2021/04/14 14:01:51;;;;;;;1.90;1.80;;;13.80;32.40;;;;;;6227791;28;20566;-60
2021/04/14 14:04:55;;;;;;;1.50;1.40;;;13.80;32.80;;;;;;6228241;28;20476;-61
2021/04/14 14:08:08;;;;;;;1.70;1.60;;;13.80;33.00;;;;;;6252264;28;20486;-62
2021/04/14 14:11:15;;;;;;;2.90;1.90;;;13.80;33.20;;;;;;6252119;28;20483;-58
2021/04/14 14:14:19;;;;;;;1.83;1.73;;;13.50;32.30;;;;;;6237817;28;20782;-65
2021/04/14 14:17:25;;;;;;;1.80;1.50;;;13.10;32.90;;;;;;6233163;28;20479;-62
2021/04/14 14:20:32;;;;;;;1.40;1.30;;;13.00;33.30;;;;;;6236163;28;20777;-61
2021/04/14 14:23:39;;;;;;;3.40;1.70;;;12.70;33.00;;;;;;6239089;28;20608;-61
2021/04/14 14:26:47;;;;;;;1.80;1.50;;;12.30;32.70;;;;;;6276920;28;20481;-64
2021/04/14 14:29:50;;;;;;;2.23;2.03;;;12.10;33.80;;;;;;6275750;28;20485;-64
2021/04/14 14:32:52;;;;;;;1.80;1.40;;;12.10;33.80;;;;;;6264799;28;20486;-59
2021/04/14 14:36:01;;;;;;;2.00;1.53;;;11.90;32.90;;;;;;6251751;28;20482;-63
2021/04/14 14:39:17;;;;;;;2.67;1.40;;;12.00;32.40;;;;;;6251414;28;20471;-64
2021/04/14 14:42:24;;;;;;;2.13;1.50;;;12.00;32.40;;;;;;6251963;28;20475;-59
2021/04/14 14:45:30;;;;;;;1.53;1.43;;;12.10;32.10;;;;;;6251536;28;20475;-59
2021/04/14 14:48:35;;;;;;;1.70;1.60;;;12.10;31.60;;;;;;6251928;28;20471;-59
2021/04/14 14:51:38;;;;;;;2.50;1.53;;;12.10;30.50;;;;;;6250744;28;20548;-63
2021/04/14 14:54:41;;;;;;;2.03;1.50;;;12.10;29.90;;;;;;6251035;28;20475;-62
2021/04/14 14:57:44;;;;;;;1.83;1.60;;;12.20;29.80;;;;;;6250399;28;20474;-64
2021/04/14 15:00:47;;;;;;;1.43;1.33;;;12.10;30.00;;;;;;6250922;28;20477;-64
2021/04/14 15:03:50;;;;;;;1.70;1.60;;;12.00;30.70;;;;;;6250586;28;20550;-59
2021/04/14 15:06:54;;;;;;;3.80;2.07;;;12.00;30.60;;;;;;6250629;28;20475;-60
2021/04/14 15:09:57;;;;;;;2.20;1.83;;;12.20;31.70;;;;;;6250711;28;20556;-64
2021/04/14 15:12:59;;;;;;;2.33;1.80;;;12.10;29.80;;;;;;6251109;28;20470;-60
2021/04/14 15:16:03;;;;;;;1.80;1.60;;;11.90;29.80;;;;;;6252562;28;20478;-62
2021/04/14 15:19:07;;;;;;;1.30;1.20;;;11.70;30.60;;;;;;6261205;28;20459;-61
2021/04/14 15:22:11;;;;;;;1.77;1.67;;;11.60;31.30;;;;;;6250650;28;20494;-61
2021/04/14 15:25:14;;;;;;;1.67;1.57;;;11.50;31.80;;;;;;6269299;28;20470;-64
2021/04/14 15:28:18;;;;;;;2.67;1.67;;;11.60;31.00;;;;;;6274776;28;20832;-61
2021/04/14 15:31:22;;;;;;;4.77;1.87;;;11.50;31.20;;;;;;6274836;28;20619;-63
2021/04/14 15:34:26;;;;;;;1.80;1.70;;;11.40;31.00;;;;;;6252294;28;20803;-63
2021/04/14 15:37:29;;;;;;;1.50;1.40;;;11.40;31.60;;;;;;6241546;28;20561;-64
2021/04/14 15:40:33;;;;;;;3.90;1.70;;;11.40;31.20;;;;;;6249963;28;20486;-65
2021/04/14 15:43:36;;;;;;;1.97;1.77;;;11.60;31.80;;;;;;6249907;28;20475;-61
2021/04/14 15:46:39;;;;;;;4.20;2.10;;;11.70;30.70;;;;;;6250407;28;20471;-64
2021/04/14 15:49:41;;;;;;;2.10;2.00;;;11.70;30.70;;;;;;6249958;28;20590;-62
2021/04/14 15:52:47;;;;;;;1.80;1.70;;;11.60;30.60;;;;;;6249814;28;21060;-61
2021/04/14 15:55:49;;;;;;;2.93;1.90;;;11.70;31.10;;;;;;6249998;28;20479;-63
2021/04/14 15:58:52;;;;;;;2.53;2.27;;;11.50;31.20;;;;;;6249496;28;20485;-65
2021/04/14 16:02:01;;;;;;;3.87;3.57;;;11.50;31.20;;;;;;6249690;28;20831;-60
2021/04/14 16:05:04;;;;;;;2.97;2.57;;;11.40;32.10;;;;;;6249520;28;20475;-62
2021/04/14 16:08:06;;;;;;;2.50;2.37;;;11.40;34.60;;;;;;6249459;28;20471;-64